createdAt,value
2017-06-10T00:00:18.195Z,78.72
2017-06-10T00:01:14.855Z,78.73
2017-06-10T00:02:11.171Z,78.73
2017-06-10T00:03:08.003Z,78.75
2017-06-10T00:04:04.287Z,78.71
2017-06-10T00:05:00.800Z,78.73
2017-06-10T00:05:57.095Z,78.75
2017-06-10T00:06:53.364Z,78.70
2017-06-10T00:07:49.899Z,78.72
2017-06-10T00:08:46.278Z,78.69
2017-06-10T00:09:42.631Z,78.74
2017-06-10T00:10:38.900Z,78.74
2017-06-10T00:11:35.220Z,78.72
2017-06-10T00:12:32.517Z,78.74
2017-06-10T00:13:30.841Z,78.74
2017-06-10T00:14:28.072Z,78.75
2017-06-10T00:15:24.511Z,78.78
2017-06-10T00:16:22.648Z,78.78
2017-06-10T00:17:21.767Z,78.83
2017-06-10T00:18:18.344Z,78.78
2017-06-10T00:19:15.480Z,78.77
2017-06-10T00:20:12.397Z,78.77
2017-06-10T00:21:08.751Z,78.74
2017-06-10T00:22:06.337Z,78.80
2017-06-10T00:23:03.508Z,78.76
2017-06-10T00:23:59.919Z,78.78
2017-06-10T00:24:56.584Z,78.77
2017-06-10T00:25:53.336Z,78.76
2017-06-10T00:26:50.136Z,78.77
2017-06-10T00:27:46.996Z,78.80
2017-06-10T00:28:43.590Z,78.80
2017-06-10T00:29:43.928Z,78.84
2017-06-10T00:30:43.040Z,78.79
2017-06-10T00:31:40.707Z,78.86
2017-06-10T00:32:39.332Z,78.90
2017-06-10T00:33:36.121Z,78.88
2017-06-10T00:34:33.119Z,78.87
2017-06-10T00:35:30.044Z,78.92
2017-06-10T00:36:28.308Z,78.93
2017-06-10T00:37:26.073Z,79.00
2017-06-10T00:38:24.073Z,79.08
2017-06-10T00:39:25.846Z,79.00
2017-06-10T00:40:24.506Z,79.08
2017-06-10T00:41:22.678Z,79.08
2017-06-10T00:42:20.343Z,79.09
2017-06-10T00:43:17.372Z,79.13
2017-06-10T00:44:16.245Z,79.11
2017-06-10T00:45:14.345Z,79.14
2017-06-10T00:46:14.041Z,79.09
2017-06-10T00:47:15.609Z,79.10
2017-06-10T00:48:16.805Z,79.15
2017-06-10T00:49:14.948Z,79.06
2017-06-10T00:50:19.102Z,79.11
2017-06-10T00:51:17.829Z,79.09
2017-06-10T00:52:21.367Z,79.06
2017-06-10T00:53:20.031Z,79.15
2017-06-10T00:55:25.908Z,79.20
2017-06-10T00:56:26.290Z,79.17
2017-06-10T00:57:30.913Z,79.17
2017-06-10T00:58:30.974Z,79.19
2017-06-10T00:59:34.019Z,79.26
2017-06-10T01:00:33.625Z,79.25
2017-06-10T01:01:31.296Z,79.21
2017-06-10T01:07:13.493Z,79.18
2017-06-10T01:08:15.140Z,79.04
2017-06-10T01:09:16.621Z,79.02
2017-06-10T01:11:26.209Z,79.09
2017-06-10T01:15:57.893Z,79.10
2017-06-10T01:16:58.677Z,79.15
2017-06-10T01:18:00.904Z,79.17
2017-06-10T01:19:02.638Z,79.22
2017-06-10T01:20:02.891Z,79.22
2017-06-10T01:23:50.840Z,79.22
2017-06-10T01:26:05.361Z,79.21
2017-06-10T01:27:08.065Z,79.30
2017-06-10T01:28:11.493Z,79.24
2017-06-10T01:29:15.474Z,79.33
2017-06-10T01:33:12.138Z,79.39
2017-06-10T01:36:04.793Z,79.41
2017-06-10T01:37:09.658Z,79.39
2017-06-10T01:42:43.096Z,79.38
2017-06-10T01:51:06.821Z,79.42
2017-06-10T05:31:04.868Z,80.16
2017-06-10T05:34:32.961Z,80.24
2017-06-10T05:35:36.500Z,80.54
2017-06-10T05:36:37.965Z,80.57
2017-06-10T05:37:38.596Z,80.75
2017-06-10T05:38:43.445Z,81.07
2017-06-10T05:40:55.153Z,81.53
2017-06-10T05:43:02.648Z,82.16
2017-06-10T05:44:12.921Z,82.36
2017-06-10T05:45:27.044Z,82.52
2017-06-10T05:47:40.561Z,82.76
2017-06-10T06:03:59.681Z,82.50
2017-06-10T06:05:04.621Z,82.42
2017-06-10T06:06:11.333Z,82.54
2017-06-10T06:07:14.209Z,82.71
2017-06-10T06:08:11.957Z,83.08
2017-06-10T06:09:10.164Z,83.21
2017-06-10T06:10:06.764Z,83.37
2017-06-10T06:11:03.537Z,83.53
2017-06-10T06:12:00.159Z,83.88
2017-06-10T06:12:56.668Z,84.02
2017-06-10T06:13:53.824Z,84.10
2017-06-10T06:14:50.202Z,84.18
2017-06-10T06:15:47.472Z,84.31
2017-06-10T06:16:43.728Z,84.36
2017-06-10T06:17:42.847Z,84.50
2017-06-10T06:18:39.136Z,84.59
2017-06-10T06:19:38.704Z,84.59
2017-06-10T06:20:34.975Z,84.65
2017-06-10T06:21:31.227Z,84.70
2017-06-10T06:22:27.503Z,84.73
2017-06-10T06:23:23.779Z,84.79
2017-06-10T06:24:20.047Z,84.84
2017-06-10T06:25:16.345Z,84.89
2017-06-10T06:26:12.603Z,85.00
2017-06-10T06:27:08.867Z,85.01
2017-06-10T06:28:05.135Z,85.04
2017-06-10T06:29:01.423Z,85.09
2017-06-10T06:29:57.674Z,85.15
2017-06-10T06:30:53.932Z,85.20
2017-06-10T06:31:50.195Z,85.29
2017-06-10T06:32:46.461Z,85.36
2017-06-10T06:33:42.791Z,85.37
2017-06-10T06:34:39.315Z,85.40
2017-06-10T06:35:35.664Z,85.42
2017-06-10T06:36:32.011Z,85.44
2017-06-10T06:37:28.255Z,85.43
2017-06-10T06:38:24.495Z,85.45
2017-06-10T06:39:20.738Z,85.45
2017-06-10T06:40:17.005Z,85.49
2017-06-10T06:41:13.251Z,85.51
2017-06-10T06:42:09.494Z,85.55
2017-06-10T06:43:05.733Z,85.68
2017-06-10T06:44:01.987Z,85.61
2017-06-10T06:44:58.244Z,85.62
2017-06-10T06:45:54.527Z,85.63
2017-06-10T06:46:50.769Z,85.71
2017-06-10T06:47:47.072Z,85.71
2017-06-10T06:48:43.606Z,85.67
2017-06-10T06:49:39.854Z,85.57
2017-06-10T06:50:36.100Z,85.56
2017-06-10T06:51:32.363Z,85.54
2017-06-10T06:52:28.617Z,85.53
2017-06-10T06:53:24.864Z,85.49
2017-06-10T06:54:21.098Z,85.47
2017-06-10T06:55:17.338Z,85.41
2017-06-10T06:56:13.614Z,85.37
2017-06-10T06:57:09.875Z,85.37
2017-06-10T06:58:06.131Z,85.33
2017-06-10T06:59:02.379Z,85.31
2017-06-10T06:59:58.635Z,85.28
2017-06-10T07:00:54.886Z,85.20
2017-06-10T07:01:51.167Z,85.13
2017-06-10T07:02:47.411Z,85.09
2017-06-10T07:03:43.659Z,85.03
2017-06-10T07:04:39.907Z,84.94
2017-06-10T07:05:36.159Z,84.90
2017-06-10T07:06:32.408Z,84.86
2017-06-10T07:07:28.683Z,84.84
2017-06-10T07:08:25.019Z,84.81
2017-06-10T07:09:21.266Z,84.76
2017-06-10T07:10:17.510Z,84.71
2017-06-10T07:11:13.755Z,84.66
2017-06-10T07:12:10.011Z,84.64
2017-06-10T07:13:06.267Z,84.66
2017-06-10T07:14:02.507Z,84.62
2017-06-10T07:14:58.790Z,84.58
2017-06-10T07:15:55.055Z,84.55
2017-06-10T07:16:51.311Z,84.53
2017-06-10T07:17:47.566Z,84.50
2017-06-10T07:18:43.823Z,84.51
2017-06-10T07:19:40.066Z,84.53
2017-06-10T07:20:36.343Z,84.49
2017-06-10T07:21:32.611Z,84.50
2017-06-10T07:22:28.855Z,84.54
2017-06-10T07:23:25.142Z,84.53
2017-06-10T07:24:21.443Z,84.50
2017-06-10T07:25:17.683Z,84.49
2017-06-10T07:26:13.930Z,84.53
2017-06-10T07:27:10.171Z,84.52
2017-06-10T07:28:06.427Z,84.51
2017-06-10T07:29:02.706Z,84.54
2017-06-10T07:29:58.956Z,84.53
2017-06-10T07:30:55.210Z,84.54
2017-06-10T07:31:51.446Z,84.53
2017-06-10T07:32:47.678Z,84.53
2017-06-10T07:33:43.934Z,84.50
2017-06-10T07:34:40.199Z,84.50
2017-06-10T07:35:36.443Z,84.48
2017-06-10T07:36:32.695Z,84.48
2017-06-10T07:37:28.935Z,84.47
2017-06-10T07:38:25.195Z,84.44
2017-06-10T07:39:21.439Z,84.41
2017-06-10T07:40:17.715Z,84.43
2017-06-10T07:41:13.958Z,84.44
2017-06-10T07:42:10.204Z,84.43
2017-06-10T07:43:06.443Z,84.51
2017-06-10T07:44:02.687Z,84.48
2017-06-10T07:44:58.930Z,84.45
2017-06-10T07:45:55.191Z,84.44
2017-06-10T07:46:51.431Z,84.40
2017-06-10T07:47:47.679Z,84.37
2017-06-10T07:48:43.992Z,84.36
2017-06-10T07:49:40.242Z,84.37
2017-06-10T07:50:36.534Z,84.37
2017-06-10T07:51:32.779Z,84.40
2017-06-10T07:52:29.031Z,84.44
2017-06-10T07:53:25.347Z,84.47
2017-06-10T07:54:21.583Z,84.43
2017-06-10T07:55:17.822Z,84.39
2017-06-10T07:56:14.091Z,84.38
2017-06-10T07:57:10.338Z,84.37
2017-06-10T07:58:06.583Z,84.36
2017-06-10T07:59:02.819Z,84.36
2017-06-10T07:59:59.063Z,84.31
2017-06-10T08:00:55.455Z,84.26
2017-06-10T08:01:51.860Z,84.25
2017-06-10T08:02:48.123Z,84.22
2017-06-10T08:03:44.372Z,84.12
2017-06-10T08:04:40.660Z,83.98
2017-06-10T08:05:36.935Z,83.84
2017-06-10T08:06:33.195Z,83.67
2017-06-10T08:07:29.474Z,83.56
2017-06-10T08:08:25.714Z,83.44
2017-06-10T08:09:21.977Z,83.33
2017-06-10T08:10:18.250Z,83.26
2017-06-10T08:11:14.495Z,83.23
2017-06-10T08:12:10.743Z,83.37
2017-06-10T08:13:07.004Z,82.73
2017-06-10T08:14:03.263Z,81.74
2017-06-10T08:14:59.500Z,80.85
2017-06-10T08:15:55.750Z,80.18
2017-06-10T08:16:52.011Z,79.64
2017-06-10T08:17:48.295Z,79.12
2017-06-10T08:18:44.542Z,78.67
2017-06-10T08:19:40.816Z,78.26
2017-06-10T08:20:37.083Z,77.81
2017-06-10T08:21:33.339Z,77.50
2017-06-10T08:22:29.583Z,77.30
2017-06-10T08:23:25.837Z,77.08
2017-06-10T08:24:22.135Z,76.78
2017-06-10T08:25:18.376Z,76.66
2017-06-10T08:26:14.631Z,76.45
2017-06-10T08:27:10.886Z,76.06
2017-06-10T08:28:07.211Z,75.79
2017-06-10T08:29:03.479Z,75.60
2017-06-10T08:29:59.727Z,75.33
2017-06-10T08:30:55.970Z,75.24
2017-06-10T08:31:52.212Z,75.07
2017-06-10T08:32:48.466Z,74.86
2017-06-10T08:33:44.719Z,74.62
2017-06-10T08:34:40.995Z,74.34
2017-06-10T08:35:37.232Z,73.98
2017-06-10T08:36:33.496Z,73.69
2017-06-10T08:37:29.750Z,73.27
2017-06-10T08:38:26.000Z,73.02
2017-06-10T08:39:22.238Z,72.70
2017-06-10T08:40:18.492Z,72.31
2017-06-10T08:41:14.745Z,72.12
2017-06-10T08:42:10.986Z,71.60
2017-06-10T08:43:07.227Z,71.54
2017-06-10T08:44:03.475Z,71.38
2017-06-10T08:44:59.735Z,71.42
2017-06-10T08:45:56.011Z,71.13
2017-06-10T08:46:52.263Z,70.91
2017-06-10T08:47:48.516Z,70.62
2017-06-10T08:48:44.766Z,70.46
2017-06-10T08:49:41.007Z,69.89
2017-06-10T08:50:37.255Z,69.70
2017-06-10T08:51:33.530Z,69.55
2017-06-10T08:52:29.767Z,69.43
2017-06-10T08:53:26.007Z,69.36
2017-06-10T08:54:22.255Z,69.00
2017-06-10T08:55:18.494Z,68.69
2017-06-10T08:56:14.739Z,68.55
2017-06-10T08:57:11.003Z,68.47
2017-06-10T08:58:07.268Z,68.57
2017-06-10T08:59:03.530Z,68.68
2017-06-10T08:59:59.787Z,68.71
2017-06-10T09:00:56.059Z,68.79
2017-06-10T09:01:52.299Z,69.14
2017-06-10T09:02:48.568Z,69.35
2017-06-10T09:03:44.819Z,69.34
2017-06-10T09:04:41.058Z,69.15
2017-06-10T09:05:37.303Z,68.90
2017-06-10T09:06:33.547Z,68.43
2017-06-10T09:07:29.808Z,67.89
2017-06-10T09:08:26.063Z,67.75
2017-06-10T09:09:22.307Z,68.11
2017-06-10T09:10:18.559Z,68.53
2017-06-10T09:11:14.795Z,68.68
2017-06-10T09:12:11.030Z,68.84
2017-06-10T09:13:07.310Z,68.52
2017-06-10T09:14:03.556Z,68.63
2017-06-10T09:14:59.810Z,68.45
2017-06-10T09:15:56.050Z,68.40
2017-06-10T09:16:52.303Z,67.99
2017-06-10T09:17:48.567Z,67.67
2017-06-10T09:18:44.834Z,67.62
2017-06-10T09:19:41.083Z,67.53
2017-06-10T09:20:37.322Z,67.12
2017-06-10T09:21:33.568Z,66.51
2017-06-10T09:22:29.811Z,66.57
2017-06-10T09:23:26.059Z,66.44
2017-06-10T09:24:22.335Z,66.31
2017-06-10T09:25:18.575Z,66.47
2017-06-10T09:26:14.834Z,66.62
2017-06-10T09:27:11.071Z,66.14
2017-06-10T09:28:07.315Z,65.16
2017-06-10T09:29:03.580Z,65.12
2017-06-10T09:29:59.870Z,65.28
2017-06-10T09:30:56.104Z,65.11
2017-06-10T09:31:52.343Z,65.12
2017-06-10T09:32:48.587Z,64.29
2017-06-10T09:33:44.826Z,62.90
2017-06-10T09:34:41.108Z,62.17
2017-06-10T09:35:37.347Z,60.96
2017-06-10T09:36:33.587Z,59.88
2017-06-10T09:37:29.822Z,58.85
2017-06-10T09:38:26.079Z,58.72
2017-06-10T09:39:22.331Z,57.71
2017-06-10T09:40:18.587Z,57.21
2017-06-10T09:41:14.830Z,56.79
2017-06-10T09:42:11.071Z,56.93
2017-06-10T09:43:07.315Z,56.52
2017-06-10T09:44:03.577Z,56.53
2017-06-10T09:45:00.717Z,56.07
2017-06-10T09:45:57.119Z,55.62
2017-06-10T09:46:53.364Z,54.75
2017-06-10T09:47:49.606Z,53.56
2017-06-10T09:48:45.851Z,52.35
2017-06-10T09:49:42.278Z,51.47
2017-06-10T09:50:38.515Z,50.40
2017-06-10T09:51:35.735Z,49.64
2017-06-10T09:52:32.001Z,49.71
2017-06-10T09:53:28.280Z,49.80
2017-06-10T09:54:24.536Z,49.42
2017-06-10T09:55:20.826Z,49.71
2017-06-10T09:56:17.075Z,50.08
2017-06-10T09:57:13.343Z,50.60
2017-06-10T09:58:09.591Z,50.48
2017-06-10T09:59:05.835Z,50.22
2017-06-10T10:00:02.089Z,49.70
2017-06-10T10:00:58.367Z,49.18
2017-06-10T10:01:54.630Z,49.14
2017-06-10T10:02:50.886Z,48.79
2017-06-10T10:03:47.127Z,48.36
2017-06-10T10:04:43.381Z,48.01
2017-06-10T10:05:39.631Z,47.55
2017-06-10T10:06:35.883Z,47.41
2017-06-10T10:07:32.171Z,47.49
2017-06-10T10:08:28.431Z,47.71
2017-06-10T10:09:24.702Z,47.76
2017-06-10T10:10:20.964Z,47.81
2017-06-10T10:11:17.222Z,47.43
2017-06-10T10:12:13.493Z,47.12
2017-06-10T10:13:09.833Z,47.49
2017-06-10T10:14:06.107Z,47.57
2017-06-10T10:15:02.371Z,47.99
2017-06-10T10:15:58.647Z,48.44
2017-06-10T10:16:54.914Z,48.19
2017-06-10T10:17:51.202Z,48.26
2017-06-10T10:18:47.885Z,48.44
2017-06-10T10:19:44.157Z,48.46
2017-06-10T10:20:40.414Z,48.32
2017-06-10T10:21:36.663Z,48.24
2017-06-10T10:22:32.921Z,48.23
2017-06-10T10:23:29.175Z,48.79
2017-06-10T10:24:25.443Z,48.68
2017-06-10T10:25:21.695Z,48.47
2017-06-10T10:26:17.943Z,48.55
2017-06-10T10:27:14.191Z,48.66
2017-06-10T10:28:11.815Z,48.01
2017-06-10T10:29:08.135Z,47.40
2017-06-10T10:30:04.398Z,46.86
2017-06-10T10:31:00.775Z,46.58
2017-06-10T10:31:57.014Z,46.48
2017-06-10T10:32:53.259Z,46.10
2017-06-10T10:33:49.519Z,45.82
2017-06-10T10:34:45.805Z,45.56
2017-06-10T10:35:42.048Z,45.12
2017-06-10T10:36:38.310Z,45.87
2017-06-10T10:37:34.587Z,46.29
2017-06-10T10:38:30.839Z,46.44
2017-06-10T10:39:27.131Z,46.42
2017-06-10T10:40:23.421Z,46.80
2017-06-10T10:41:19.670Z,46.57
2017-06-10T10:42:15.919Z,46.95
2017-06-10T10:43:12.168Z,47.04
2017-06-10T10:44:08.420Z,46.94
2017-06-10T10:45:04.683Z,47.49
2017-06-10T10:46:00.963Z,46.98
2017-06-10T10:46:57.218Z,46.54
2017-06-10T10:47:53.467Z,46.32
2017-06-10T10:48:49.727Z,45.85
2017-06-10T10:49:45.974Z,45.65
2017-06-10T10:50:42.247Z,45.32
2017-06-10T10:51:38.529Z,45.36
2017-06-10T10:52:34.790Z,45.74
2017-06-10T10:53:31.038Z,45.79
2017-06-10T10:54:27.299Z,46.14
2017-06-10T10:55:23.551Z,46.32
2017-06-10T10:56:19.844Z,46.46
2017-06-10T10:57:16.099Z,46.94
2017-06-10T10:58:12.355Z,47.54
2017-06-10T10:59:08.618Z,48.26
2017-06-10T11:00:04.895Z,48.76
2017-06-10T11:01:01.160Z,48.69
2017-06-10T11:01:57.431Z,47.98
2017-06-10T11:02:53.683Z,47.59
2017-06-10T11:03:49.927Z,47.55
2017-06-10T11:04:46.166Z,47.27
2017-06-10T11:05:42.407Z,47.40
2017-06-10T11:06:38.662Z,47.71
2017-06-10T11:07:34.985Z,47.63
2017-06-10T11:08:31.263Z,47.75
2017-06-10T11:09:27.539Z,47.85
2017-06-10T11:10:23.783Z,47.38
2017-06-10T11:11:20.022Z,47.23
2017-06-10T11:12:16.284Z,46.83
2017-06-10T11:13:12.587Z,46.99
2017-06-10T11:14:08.849Z,47.37
2017-06-10T11:15:05.126Z,47.58
2017-06-10T11:16:01.438Z,47.33
2017-06-10T11:16:57.739Z,47.14
2017-06-10T11:17:54.015Z,47.11
2017-06-10T11:18:50.320Z,47.08
2017-06-10T11:19:46.596Z,47.41
2017-06-10T11:20:42.862Z,47.46
2017-06-10T11:21:39.104Z,47.45
2017-06-10T11:22:35.351Z,47.60
2017-06-10T11:23:31.651Z,47.43
2017-06-10T11:24:27.895Z,47.30
2017-06-10T11:25:24.131Z,47.11
2017-06-10T11:26:20.382Z,46.74
2017-06-10T11:27:16.624Z,46.29
2017-06-10T11:28:12.866Z,46.23
2017-06-10T11:29:09.142Z,45.80
2017-06-10T11:30:05.375Z,45.67
2017-06-10T11:31:01.642Z,45.91
2017-06-10T11:31:57.943Z,45.77
2017-06-10T11:32:54.183Z,45.34
2017-06-10T11:33:50.426Z,45.22
2017-06-10T11:34:46.694Z,44.87
2017-06-10T11:35:42.946Z,44.95
2017-06-10T11:36:39.183Z,45.27
2017-06-10T11:37:35.423Z,45.60
2017-06-10T11:38:31.718Z,45.34
2017-06-10T11:39:27.969Z,44.44
2017-06-10T11:40:24.244Z,44.64
2017-06-10T11:41:20.484Z,44.69
2017-06-10T11:42:16.739Z,44.82
2017-06-10T11:43:13.043Z,44.86
2017-06-10T11:44:09.328Z,44.69
2017-06-10T11:45:05.607Z,43.59
2017-06-10T11:46:01.860Z,43.98
2017-06-10T11:46:58.099Z,44.24
2017-06-10T11:47:54.352Z,43.93
2017-06-10T11:48:50.590Z,43.56
2017-06-10T11:49:46.831Z,43.67
2017-06-10T11:50:43.103Z,43.72
2017-06-10T11:51:39.347Z,43.44
2017-06-10T11:52:35.594Z,43.22
2017-06-10T11:53:31.847Z,42.83
2017-06-10T11:54:28.098Z,42.79
2017-06-10T11:55:24.364Z,43.01
2017-06-10T11:56:20.639Z,43.12
2017-06-10T11:57:16.907Z,43.08
2017-06-10T11:58:13.179Z,43.10
2017-06-10T11:59:09.427Z,43.31
2017-06-10T12:00:05.667Z,43.41
2017-06-10T12:01:01.919Z,43.25
2017-06-10T12:01:58.182Z,43.64
2017-06-10T12:02:54.435Z,43.36
2017-06-10T12:03:50.670Z,43.75
2017-06-10T12:04:46.914Z,44.12
2017-06-10T12:05:43.188Z,44.25
2017-06-10T12:06:39.551Z,44.61
2017-06-10T12:07:35.828Z,44.37
2017-06-10T12:08:32.087Z,43.83
2017-06-10T12:09:28.335Z,43.62
2017-06-10T12:10:24.571Z,44.10
2017-06-10T12:11:20.819Z,44.07
2017-06-10T12:12:17.067Z,43.48
2017-06-10T12:13:13.355Z,43.27
2017-06-10T12:14:09.613Z,43.01
2017-06-10T12:15:05.863Z,43.01
2017-06-10T12:16:02.110Z,42.51
2017-06-10T12:16:58.369Z,42.39
2017-06-10T12:17:54.651Z,41.98
2017-06-10T12:18:50.907Z,41.29
2017-06-10T12:19:47.159Z,40.90
2017-06-10T12:20:43.403Z,40.98
2017-06-10T12:21:39.651Z,40.99
2017-06-10T12:22:35.902Z,40.39
2017-06-10T12:23:35.071Z,40.34
2017-06-10T12:24:31.330Z,40.38
2017-06-10T12:25:27.573Z,40.13
2017-06-10T12:26:23.823Z,40.41
2017-06-10T12:27:20.063Z,40.17
2017-06-10T12:28:16.323Z,40.18
2017-06-10T12:29:12.591Z,39.98
2017-06-10T12:30:08.843Z,40.02
2017-06-10T12:31:05.091Z,39.86
2017-06-10T12:32:01.336Z,39.60
2017-06-10T12:32:57.583Z,39.90
2017-06-10T12:33:53.835Z,40.17
2017-06-10T12:34:50.075Z,39.99
2017-06-10T12:35:46.315Z,39.86
2017-06-10T12:36:42.575Z,39.45
2017-06-10T12:37:38.811Z,39.20
2017-06-10T12:38:35.070Z,39.39
2017-06-10T12:39:31.316Z,39.61
2017-06-10T12:40:27.587Z,39.57
2017-06-10T12:41:23.846Z,39.77
2017-06-10T12:42:20.094Z,39.45
2017-06-10T12:43:16.342Z,39.52
2017-06-10T12:44:12.589Z,39.54
2017-06-10T12:45:08.915Z,39.61
2017-06-10T12:46:05.159Z,39.39
2017-06-10T12:47:01.394Z,39.10
2017-06-10T12:47:57.635Z,38.96
2017-06-10T12:48:53.875Z,38.72
2017-06-10T12:49:50.118Z,38.77
2017-06-10T12:50:46.396Z,38.49
2017-06-10T12:51:42.684Z,38.01
2017-06-10T12:52:38.959Z,37.57
2017-06-10T12:53:35.338Z,37.67
2017-06-10T12:54:31.588Z,37.84
2017-06-10T12:55:27.863Z,38.02
2017-06-10T12:56:24.136Z,38.55
2017-06-10T12:57:20.374Z,38.92
2017-06-10T12:58:16.623Z,38.65
2017-06-10T12:59:12.858Z,38.46
2017-06-10T13:00:09.083Z,38.74
2017-06-10T13:01:05.327Z,38.02
2017-06-10T13:02:01.598Z,38.09
2017-06-10T13:02:57.835Z,38.24
2017-06-10T13:03:54.092Z,38.41
2017-06-10T13:04:50.350Z,38.40
2017-06-10T13:05:46.607Z,38.44
2017-06-10T13:06:42.864Z,38.59
2017-06-10T13:07:39.129Z,38.85
2017-06-10T13:08:35.370Z,38.99
2017-06-10T13:09:31.618Z,38.99
2017-06-10T13:10:27.864Z,38.65
2017-06-10T13:11:24.119Z,38.44
2017-06-10T13:12:20.400Z,38.32
2017-06-10T13:13:16.655Z,37.88
2017-06-10T13:14:12.898Z,37.66
2017-06-10T13:15:09.149Z,37.91
2017-06-10T13:16:05.399Z,37.50
2017-06-10T13:17:01.653Z,37.32
2017-06-10T13:17:57.946Z,37.36
2017-06-10T13:18:54.211Z,37.08
2017-06-10T13:19:50.451Z,37.07
2017-06-10T13:20:46.703Z,36.38
2017-06-10T13:21:42.950Z,36.42
2017-06-10T13:22:39.210Z,36.71
2017-06-10T13:23:35.491Z,36.55
2017-06-10T13:24:31.741Z,36.52
2017-06-10T13:25:28.011Z,36.56
2017-06-10T13:26:24.248Z,36.84
2017-06-10T13:27:20.491Z,36.76
2017-06-10T13:28:16.730Z,37.00
2017-06-10T13:29:12.998Z,37.07
2017-06-10T13:30:09.251Z,37.18
2017-06-10T13:31:05.492Z,37.68
2017-06-10T13:32:01.735Z,37.92
2017-06-10T13:32:58.026Z,38.26
2017-06-10T13:33:54.270Z,38.76
2017-06-10T13:34:50.628Z,39.11
2017-06-10T13:35:46.874Z,39.58
2017-06-10T13:36:43.121Z,39.80
2017-06-10T13:37:39.366Z,39.45
2017-06-10T13:38:35.611Z,39.35
2017-06-10T13:39:31.875Z,39.04
2017-06-10T13:40:28.132Z,38.71
2017-06-10T13:41:24.392Z,38.62
2017-06-10T13:42:20.711Z,38.49
2017-06-10T13:43:16.955Z,38.65
2017-06-10T13:44:13.191Z,38.46
2017-06-10T13:45:09.461Z,38.39
2017-06-10T13:46:05.720Z,38.22
2017-06-10T13:47:01.967Z,37.91
2017-06-10T13:47:58.205Z,38.03
2017-06-10T13:48:54.452Z,38.22
2017-06-10T13:49:50.695Z,37.87
2017-06-10T13:50:46.977Z,38.23
2017-06-10T13:51:43.219Z,38.21
2017-06-10T13:52:39.474Z,38.08
2017-06-10T13:53:35.711Z,37.86
2017-06-10T13:54:31.959Z,37.79
2017-06-10T13:55:30.050Z,37.68
2017-06-10T13:56:26.310Z,37.19
2017-06-10T13:57:22.576Z,36.99
2017-06-10T13:58:18.811Z,36.67
2017-06-10T13:59:15.054Z,37.29
2017-06-10T14:00:11.327Z,37.73
2017-06-10T14:01:07.647Z,37.13
2017-06-10T14:02:03.920Z,36.81
2017-06-10T14:03:00.163Z,36.71
2017-06-10T14:03:56.407Z,36.41
2017-06-10T14:04:52.650Z,36.33
2017-06-10T14:05:48.900Z,36.41
2017-06-10T14:06:45.169Z,36.58
2017-06-10T14:07:41.415Z,36.42
2017-06-10T14:08:37.671Z,36.33
2017-06-10T14:09:33.922Z,36.15
2017-06-10T14:10:30.187Z,36.33
2017-06-10T14:11:26.430Z,36.55
2017-06-10T14:12:22.695Z,36.54
2017-06-10T14:13:18.934Z,36.46
2017-06-10T14:14:15.235Z,36.22
2017-06-10T14:15:11.495Z,36.35
2017-06-10T14:16:07.750Z,36.72
2017-06-10T14:17:04.000Z,36.91
2017-06-10T14:18:00.268Z,36.59
2017-06-10T14:18:56.504Z,36.17
2017-06-10T14:19:52.759Z,35.53
2017-06-10T14:20:49.061Z,35.39
2017-06-10T14:21:45.299Z,35.62
2017-06-10T14:22:41.544Z,36.03
2017-06-10T14:23:37.819Z,36.07
2017-06-10T14:24:34.080Z,35.87
2017-06-10T14:25:30.346Z,35.85
2017-06-10T14:26:26.591Z,35.72
2017-06-10T14:27:22.831Z,35.79
2017-06-10T14:28:19.123Z,35.98
2017-06-10T14:29:15.395Z,35.82
2017-06-10T14:30:11.634Z,35.70
2017-06-10T14:31:07.881Z,35.89
2017-06-10T14:32:04.132Z,35.87
2017-06-10T14:33:00.396Z,36.12
2017-06-10T14:33:56.678Z,35.88
2017-06-10T14:34:52.955Z,35.65
2017-06-10T14:35:49.208Z,35.83
2017-06-10T14:36:45.474Z,36.12
2017-06-10T14:37:41.738Z,35.77
2017-06-10T14:38:37.998Z,35.42
2017-06-10T14:39:34.287Z,35.34
2017-06-10T14:40:30.551Z,35.40
2017-06-10T14:41:26.828Z,35.85
2017-06-10T14:42:23.108Z,36.27
2017-06-10T14:43:19.353Z,36.35
2017-06-10T14:44:15.607Z,35.76
2017-06-10T14:45:11.895Z,35.56
2017-06-10T14:46:08.147Z,35.54
2017-06-10T14:47:04.395Z,35.04
2017-06-10T14:48:00.647Z,34.93
2017-06-10T14:48:56.898Z,34.90
2017-06-10T14:49:53.152Z,35.40
2017-06-10T14:50:49.458Z,35.78
2017-06-10T14:51:45.720Z,35.35
2017-06-10T14:52:41.955Z,35.28
2017-06-10T14:53:38.206Z,34.93
2017-06-10T14:54:34.450Z,34.86
2017-06-10T14:55:30.720Z,34.86
2017-06-10T14:56:26.995Z,34.95
2017-06-10T14:57:23.243Z,35.05
2017-06-10T14:58:19.495Z,35.61
2017-06-10T14:59:15.752Z,35.87
2017-06-10T15:00:11.988Z,36.24
2017-06-10T15:01:08.260Z,36.37
2017-06-10T15:02:04.503Z,36.02
2017-06-10T15:03:00.743Z,35.91
2017-06-10T15:03:57.023Z,35.96
2017-06-10T15:04:53.259Z,36.06
2017-06-10T15:05:49.518Z,36.44
2017-06-10T15:06:45.806Z,36.20
2017-06-10T15:07:42.099Z,35.60
2017-06-10T15:08:38.351Z,35.23
2017-06-10T15:09:34.613Z,35.13
2017-06-10T15:10:30.877Z,35.48
2017-06-10T15:11:27.112Z,35.74
2017-06-10T15:12:23.403Z,35.70
2017-06-10T15:13:19.657Z,35.37
2017-06-10T15:14:15.907Z,35.33
2017-06-10T15:15:12.259Z,35.05
2017-06-10T15:16:08.416Z,34.93
2017-06-10T15:17:04.674Z,34.89
2017-06-10T15:18:00.955Z,34.92
2017-06-10T15:18:57.198Z,34.83
2017-06-10T15:19:53.455Z,34.47
2017-06-10T15:20:49.708Z,34.40
2017-06-10T15:21:45.961Z,34.51
2017-06-10T15:22:42.216Z,34.72
2017-06-10T15:23:38.491Z,35.23
2017-06-10T15:24:34.770Z,35.12
2017-06-10T15:25:31.028Z,35.54
2017-06-10T15:26:27.287Z,36.02
2017-06-10T15:27:23.543Z,36.17
2017-06-10T15:28:19.835Z,35.90
2017-06-10T15:29:16.083Z,35.95
2017-06-10T15:30:12.327Z,35.67
2017-06-10T15:31:08.578Z,35.47
2017-06-10T15:32:04.868Z,35.56
2017-06-10T15:33:01.119Z,35.77
2017-06-10T15:33:57.396Z,36.03
2017-06-10T15:34:53.631Z,36.26
2017-06-10T15:35:49.871Z,36.35
2017-06-10T15:36:46.119Z,36.35
2017-06-10T15:37:42.375Z,36.48
2017-06-10T15:38:38.626Z,36.38
2017-06-10T15:39:34.894Z,36.40
2017-06-10T15:40:31.139Z,36.53
2017-06-10T15:41:27.403Z,36.46
2017-06-10T15:42:23.683Z,36.50
2017-06-10T15:43:20.355Z,36.68
2017-06-10T15:44:16.611Z,37.02
2017-06-10T15:45:12.913Z,37.18
2017-06-10T15:46:09.295Z,37.28
2017-06-10T15:47:05.751Z,37.21
2017-06-10T15:48:02.035Z,37.47
2017-06-10T15:48:58.295Z,37.76
2017-06-10T15:49:54.551Z,37.50
2017-06-10T15:50:50.814Z,37.37
2017-06-10T15:51:47.071Z,36.76
2017-06-10T15:52:43.333Z,36.66
2017-06-10T15:53:39.587Z,36.95
2017-06-10T15:54:35.834Z,37.39
2017-06-10T15:55:32.178Z,37.48
2017-06-10T15:56:28.422Z,37.46
2017-06-10T15:57:24.672Z,37.64
2017-06-10T15:58:20.931Z,37.71
2017-06-10T15:59:17.179Z,37.65
2017-06-10T16:00:13.426Z,37.64
2017-06-10T16:01:09.706Z,37.26
2017-06-10T16:02:05.943Z,37.16
2017-06-10T16:03:02.185Z,37.43
2017-06-10T16:03:58.427Z,38.16
2017-06-10T16:04:54.684Z,38.07
2017-06-10T16:05:50.948Z,37.83
2017-06-10T16:06:47.227Z,37.83
2017-06-10T16:07:43.475Z,37.88
2017-06-10T16:08:39.719Z,38.00
2017-06-10T16:09:35.982Z,38.15
2017-06-10T16:10:32.240Z,38.34
2017-06-10T16:11:28.543Z,38.09
2017-06-10T16:12:24.822Z,37.94
2017-06-10T16:13:21.063Z,37.63
2017-06-10T16:14:17.319Z,37.78
2017-06-10T16:15:13.593Z,37.65
2017-06-10T16:16:09.844Z,37.46
2017-06-10T16:17:06.100Z,37.40
2017-06-10T16:18:02.367Z,37.39
2017-06-10T16:18:58.626Z,37.85
2017-06-10T16:19:54.889Z,38.47
2017-06-10T16:20:51.131Z,39.13
2017-06-10T16:21:47.472Z,39.53
2017-06-10T16:22:43.751Z,40.08
2017-06-10T16:23:40.011Z,40.20
2017-06-10T16:24:36.262Z,39.37
2017-06-10T16:25:32.505Z,38.87
2017-06-10T16:26:28.764Z,38.89
2017-06-10T16:27:25.023Z,38.96
2017-06-10T16:28:21.298Z,39.22
2017-06-10T16:29:17.581Z,39.63
2017-06-10T16:30:13.846Z,39.80
2017-06-10T16:31:10.096Z,39.18
2017-06-10T16:32:06.347Z,38.94
2017-06-10T16:33:02.622Z,38.72
2017-06-10T16:33:58.921Z,38.39
2017-06-10T16:34:55.188Z,38.62
2017-06-10T16:35:51.435Z,38.99
2017-06-10T16:36:47.694Z,39.19
2017-06-10T16:37:43.944Z,39.36
2017-06-10T16:38:40.219Z,39.27
2017-06-10T16:39:36.478Z,39.09
2017-06-10T16:40:32.723Z,39.19
2017-06-10T16:41:28.970Z,39.66